sensor_id;sensor_type;location;lat;lon;timestamp;P1;durP1;ratioP1;P2;durP2;ratioP2
15408;SDS011;7803;48.130;13.788;2022-11-15T00:02:33;10.63;;;9.52;;
15408;SDS011;7803;48.130;13.788;2022-11-15T00:05:36;10.80;;;9.60;;
15408;SDS011;7803;48.130;13.788;2022-11-15T00:08:38;10.18;;;9.18;;
15408;SDS011;7803;48.130;13.788;2022-11-15T00:11:41;10.20;;;9.20;;
15408;SDS011;7803;48.130;13.788;2022-11-15T00:14:43;10.00;;;9.00;;
15408;SDS011;7803;48.130;13.788;2022-11-15T00:17:48;10.73;;;9.60;;
15408;SDS011;7803;48.130;13.788;2022-11-15T00:20:51;10.98;;;9.80;;
15408;SDS011;7803;48.130;13.788;2022-11-15T00:23:54;10.40;;;9.40;;
15408;SDS011;7803;48.130;13.788;2022-11-15T00:26:56;10.18;;;9.18;;
15408;SDS011;7803;48.130;13.788;2022-11-15T00:29:58;10.00;;;9.02;;
15408;SDS011;7803;48.130;13.788;2022-11-15T00:33:01;10.32;;;9.30;;
15408;SDS011;7803;48.130;13.788;2022-11-15T00:36:06;10.68;;;9.57;;
15408;SDS011;7803;48.130;13.788;2022-11-15T00:39:10;10.05;;;9.13;;
15408;SDS011;7803;48.130;13.788;2022-11-15T00:42:12;10.05;;;9.07;;
15408;SDS011;7803;48.130;13.788;2022-11-15T00:45:15;10.27;;;9.27;;
15408;SDS011;7803;48.130;13.788;2022-11-15T00:48:17;10.10;;;9.10;;
15408;SDS011;7803;48.130;13.788;2022-11-15T00:51:20;9.77;;;8.88;;
15408;SDS011;7803;48.130;13.788;2022-11-15T00:54:23;9.95;;;8.95;;
15408;SDS011;7803;48.130;13.788;2022-11-15T00:57:25;10.23;;;9.23;;
15408;SDS011;7803;48.130;13.788;2022-11-15T01:00:27;9.65;;;8.75;;
15408;SDS011;7803;48.130;13.788;2022-11-15T01:03:29;9.68;;;8.77;;
15408;SDS011;7803;48.130;13.788;2022-11-15T01:06:35;9.98;;;8.98;;
15408;SDS011;7803;48.130;13.788;2022-11-15T01:09:37;9.60;;;8.70;;
15408;SDS011;7803;48.130;13.788;2022-11-15T01:12:39;9.20;;;8.30;;
15408;SDS011;7803;48.130;13.788;2022-11-15T01:15:41;9.80;;;8.90;;
15408;SDS011;7803;48.130;13.788;2022-11-15T01:18:44;9.57;;;8.68;;
15408;SDS011;7803;48.130;13.788;2022-11-15T01:21:49;9.63;;;8.73;;
15408;SDS011;7803;48.130;13.788;2022-11-15T01:24:51;9.45;;;8.55;;
15408;SDS011;7803;48.130;13.788;2022-11-15T01:27:53;9.27;;;8.38;;
15408;SDS011;7803;48.130;13.788;2022-11-15T01:30:57;10.10;;;8.90;;
15408;SDS011;7803;48.130;13.788;2022-11-15T01:33:59;9.65;;;8.75;;
15408;SDS011;7803;48.130;13.788;2022-11-15T01:37:03;10.00;;;9.00;;
15408;SDS011;7803;48.130;13.788;2022-11-15T01:40:05;9.68;;;8.77;;
15408;SDS011;7803;48.130;13.788;2022-11-15T01:43:21;9.45;;;8.55;;
15408;SDS011;7803;48.130;13.788;2022-11-15T01:46:26;9.38;;;8.48;;
15408;SDS011;7803;48.130;13.788;2022-11-15T01:49:32;8.77;;;7.93;;
15408;SDS011;7803;48.130;13.788;2022-11-15T01:52:37;8.88;;;7.97;;
15408;SDS011;7803;48.130;13.788;2022-11-15T01:55:41;8.73;;;7.93;;
15408;SDS011;7803;48.130;13.788;2022-11-15T01:58:43;9.52;;;8.27;;
15408;SDS011;7803;48.130;13.788;2022-11-15T02:01:46;8.60;;;7.80;;
15408;SDS011;7803;48.130;13.788;2022-11-15T02:04:48;8.85;;;7.95;;
15408;SDS011;7803;48.130;13.788;2022-11-15T02:07:52;9.15;;;8.25;;
15408;SDS011;7803;48.130;13.788;2022-11-15T02:10:55;8.90;;;8.10;;
15408;SDS011;7803;48.130;13.788;2022-11-15T02:13:57;8.48;;;7.72;;
15408;SDS011;7803;48.130;13.788;2022-11-15T02:17:02;8.30;;;7.50;;
15408;SDS011;7803;48.130;13.788;2022-11-15T02:20:27;8.88;;;7.97;;
15408;SDS011;7803;48.130;13.788;2022-11-15T02:27:47;8.35;;;7.55;;
15408;SDS011;7803;48.130;13.788;2022-11-15T02:31:05;8.70;;;7.85;;
15408;SDS011;7803;48.130;13.788;2022-11-15T02:34:16;8.38;;;7.57;;
15408;SDS011;7803;48.130;13.788;2022-11-15T02:37:30;8.25;;;7.45;;
15408;SDS011;7803;48.130;13.788;2022-11-15T02:40:41;8.23;;;7.43;;
15408;SDS011;7803;48.130;13.788;2022-11-15T02:43:53;7.80;;;7.10;;
15408;SDS011;7803;48.130;13.788;2022-11-15T02:47:01;8.00;;;7.28;;
15408;SDS011;7803;48.130;13.788;2022-11-15T02:50:17;7.68;;;6.97;;
15408;SDS011;7803;48.130;13.788;2022-11-15T02:53:23;8.25;;;7.40;;
15408;SDS011;7803;48.130;13.788;2022-11-15T02:56:26;7.38;;;6.68;;
15408;SDS011;7803;48.130;13.788;2022-11-15T02:59:33;8.13;;;7.43;;
15408;SDS011;7803;48.130;13.788;2022-11-15T03:02:52;7.45;;;6.75;;
15408;SDS011;7803;48.130;13.788;2022-11-15T03:06:07;7.93;;;7.13;;
15408;SDS011;7803;48.130;13.788;2022-11-15T03:09:23;7.90;;;7.20;;
15408;SDS011;7803;48.130;13.788;2022-11-15T03:12:33;8.30;;;7.50;;
15408;SDS011;7803;48.130;13.788;2022-11-15T03:15:41;7.90;;;7.10;;
15408;SDS011;7803;48.130;13.788;2022-11-15T03:18:50;7.68;;;6.88;;
15408;SDS011;7803;48.130;13.788;2022-11-15T03:21:55;7.70;;;7.00;;
15408;SDS011;7803;48.130;13.788;2022-11-15T03:25:00;7.53;;;6.82;;
15408;SDS011;7803;48.130;13.788;2022-11-15T03:28:05;7.25;;;6.57;;
15408;SDS011;7803;48.130;13.788;2022-11-15T03:31:10;7.45;;;6.75;;
15408;SDS011;7803;48.130;13.788;2022-11-15T03:34:34;7.32;;;6.60;;
15408;SDS011;7803;48.130;13.788;2022-11-15T03:37:43;7.07;;;6.38;;
15408;SDS011;7803;48.130;13.788;2022-11-15T03:40:49;7.45;;;6.72;;
15408;SDS011;7803;48.130;13.788;2022-11-15T03:43:56;8.15;;;7.35;;
15408;SDS011;7803;48.130;13.788;2022-11-15T03:47:06;7.18;;;6.47;;
15408;SDS011;7803;48.130;13.788;2022-11-15T03:50:13;6.93;;;6.32;;
15408;SDS011;7803;48.130;13.788;2022-11-15T03:53:17;6.68;;;6.07;;
15408;SDS011;7803;48.130;13.788;2022-11-15T03:56:19;6.53;;;5.93;;
15408;SDS011;7803;48.130;13.788;2022-11-15T03:59:21;7.20;;;6.50;;
15408;SDS011;7803;48.130;13.788;2022-11-15T04:02:23;7.28;;;6.47;;
15408;SDS011;7803;48.130;13.788;2022-11-15T04:05:26;7.00;;;6.30;;
15408;SDS011;7803;48.130;13.788;2022-11-15T04:08:28;7.10;;;6.43;;
15408;SDS011;7803;48.130;13.788;2022-11-15T04:11:30;7.13;;;6.53;;
15408;SDS011;7803;48.130;13.788;2022-11-15T04:14:32;6.30;;;5.70;;
15408;SDS011;7803;48.130;13.788;2022-11-15T04:17:38;6.57;;;5.97;;
15408;SDS011;7803;48.130;13.788;2022-11-15T04:20:43;7.03;;;6.43;;
15408;SDS011;7803;48.130;13.788;2022-11-15T04:24:02;6.57;;;5.97;;
15408;SDS011;7803;48.130;13.788;2022-11-15T04:27:13;6.22;;;5.63;;
15408;SDS011;7803;48.130;13.788;2022-11-15T04:30:16;7.13;;;6.20;;
15408;SDS011;7803;48.130;13.788;2022-11-15T04:33:18;6.32;;;5.80;;
15408;SDS011;7803;48.130;13.788;2022-11-15T04:36:22;6.40;;;5.80;;
15408;SDS011;7803;48.130;13.788;2022-11-15T04:39:42;6.00;;;5.50;;
15408;SDS011;7803;48.130;13.788;2022-11-15T04:42:44;5.88;;;5.38;;
15408;SDS011;7803;48.130;13.788;2022-11-15T04:45:46;6.32;;;5.72;;
15408;SDS011;7803;48.130;13.788;2022-11-15T04:48:48;6.57;;;5.97;;
15408;SDS011;7803;48.130;13.788;2022-11-15T04:51:51;5.90;;;5.40;;
15408;SDS011;7803;48.130;13.788;2022-11-15T04:54:53;5.90;;;5.40;;
15408;SDS011;7803;48.130;13.788;2022-11-15T04:57:59;6.38;;;5.80;;
15408;SDS011;7803;48.130;13.788;2022-11-15T05:01:06;7.10;;;5.85;;
15408;SDS011;7803;48.130;13.788;2022-11-15T05:04:08;5.95;;;5.45;;
15408;SDS011;7803;48.130;13.788;2022-11-15T05:07:23;6.10;;;5.50;;
15408;SDS011;7803;48.130;13.788;2022-11-15T05:10:25;6.07;;;5.57;;
15408;SDS011;7803;48.130;13.788;2022-11-15T05:13:28;5.53;;;5.03;;
15408;SDS011;7803;48.130;13.788;2022-11-15T05:16:30;5.85;;;5.35;;
15408;SDS011;7803;48.130;13.788;2022-11-15T05:19:32;5.03;;;4.63;;
15408;SDS011;7803;48.130;13.788;2022-11-15T05:22:35;5.50;;;5.00;;
15408;SDS011;7803;48.130;13.788;2022-11-15T05:25:38;6.07;;;5.40;;
15408;SDS011;7803;48.130;13.788;2022-11-15T05:28:40;6.03;;;5.43;;
15408;SDS011;7803;48.130;13.788;2022-11-15T05:31:42;5.85;;;5.32;;
15408;SDS011;7803;48.130;13.788;2022-11-15T05:34:44;5.38;;;4.88;;
15408;SDS011;7803;48.130;13.788;2022-11-15T05:37:49;5.38;;;4.88;;
15408;SDS011;7803;48.130;13.788;2022-11-15T05:40:51;5.70;;;5.20;;
15408;SDS011;7803;48.130;13.788;2022-11-15T05:43:53;5.60;;;5.10;;
15408;SDS011;7803;48.130;13.788;2022-11-15T05:46:55;5.25;;;4.85;;
15408;SDS011;7803;48.130;13.788;2022-11-15T05:49:58;5.45;;;4.95;;
15408;SDS011;7803;48.130;13.788;2022-11-15T05:53:02;5.78;;;5.15;;
15408;SDS011;7803;48.130;13.788;2022-11-15T05:56:05;6.22;;;5.57;;
15408;SDS011;7803;48.130;13.788;2022-11-15T05:59:08;5.57;;;5.07;;
15408;SDS011;7803;48.130;13.788;2022-11-15T06:02:10;5.60;;;5.10;;
15408;SDS011;7803;48.130;13.788;2022-11-15T06:05:13;5.40;;;4.90;;
15408;SDS011;7803;48.130;13.788;2022-11-15T06:08:16;5.60;;;5.10;;
15408;SDS011;7803;48.130;13.788;2022-11-15T06:11:18;5.45;;;4.97;;
15408;SDS011;7803;48.130;13.788;2022-11-15T06:14:20;5.10;;;4.70;;
15408;SDS011;7803;48.130;13.788;2022-11-15T06:17:22;5.60;;;5.10;;
15408;SDS011;7803;48.130;13.788;2022-11-15T06:20:24;5.57;;;5.07;;
15408;SDS011;7803;48.130;13.788;2022-11-15T06:23:28;5.07;;;4.68;;
15408;SDS011;7803;48.130;13.788;2022-11-15T06:26:33;5.05;;;4.65;;
15408;SDS011;7803;48.130;13.788;2022-11-15T06:29:35;5.25;;;4.85;;
15408;SDS011;7803;48.130;13.788;2022-11-15T06:32:37;5.72;;;5.22;;
15408;SDS011;7803;48.130;13.788;2022-11-15T06:35:39;5.97;;;5.22;;
15408;SDS011;7803;48.130;13.788;2022-11-15T06:42:43;5.65;;;5.15;;
15408;SDS011;7803;48.130;13.788;2022-11-15T06:45:53;5.95;;;5.07;;
15408;SDS011;7803;48.130;13.788;2022-11-15T06:48:55;5.25;;;4.80;;
15408;SDS011;7803;48.130;13.788;2022-11-15T06:51:58;5.50;;;5.00;;
15408;SDS011;7803;48.130;13.788;2022-11-15T06:55:00;4.95;;;4.55;;
15408;SDS011;7803;48.130;13.788;2022-11-15T06:58:03;5.47;;;4.95;;
15408;SDS011;7803;48.130;13.788;2022-11-15T07:01:05;4.93;;;4.30;;
15408;SDS011;7803;48.130;13.788;2022-11-15T07:04:09;6.25;;;5.07;;
15408;SDS011;7803;48.130;13.788;2022-11-15T07:07:11;5.40;;;4.68;;
15408;SDS011;7803;48.130;13.788;2022-11-15T07:10:13;5.05;;;4.65;;
15408;SDS011;7803;48.130;13.788;2022-11-15T07:13:17;4.70;;;4.30;;
15408;SDS011;7803;48.130;13.788;2022-11-15T07:16:19;5.75;;;4.97;;
15408;SDS011;7803;48.130;13.788;2022-11-15T07:19:22;4.95;;;4.45;;
15408;SDS011;7803;48.130;13.788;2022-11-15T07:22:24;5.18;;;4.70;;
15408;SDS011;7803;48.130;13.788;2022-11-15T07:25:26;5.63;;;5.00;;
15408;SDS011;7803;48.130;13.788;2022-11-15T07:28:30;5.13;;;4.63;;
15408;SDS011;7803;48.130;13.788;2022-11-15T07:31:32;4.63;;;4.22;;
15408;SDS011;7803;48.130;13.788;2022-11-15T07:34:34;4.88;;;4.43;;
15408;SDS011;7803;48.130;13.788;2022-11-15T07:37:36;5.38;;;4.90;;
15408;SDS011;7803;48.130;13.788;2022-11-15T07:40:38;4.93;;;4.43;;
15408;SDS011;7803;48.130;13.788;2022-11-15T07:43:41;5.10;;;4.60;;
15408;SDS011;7803;48.130;13.788;2022-11-15T07:46:43;5.10;;;4.60;;
15408;SDS011;7803;48.130;13.788;2022-11-15T07:49:45;4.68;;;4.28;;
15408;SDS011;7803;48.130;13.788;2022-11-15T07:52:50;6.93;;;4.85;;
15408;SDS011;7803;48.130;13.788;2022-11-15T07:55:55;5.28;;;4.70;;
15408;SDS011;7803;48.130;13.788;2022-11-15T07:58:58;4.65;;;4.22;;
15408;SDS011;7803;48.130;13.788;2022-11-15T08:02:01;4.80;;;4.40;;
15408;SDS011;7803;48.130;13.788;2022-11-15T08:05:03;4.80;;;4.40;;
15408;SDS011;7803;48.130;13.788;2022-11-15T08:08:08;5.15;;;4.68;;
15408;SDS011;7803;48.130;13.788;2022-11-15T08:11:11;4.45;;;4.05;;
15408;SDS011;7803;48.130;13.788;2022-11-15T08:14:14;5.18;;;4.68;;
15408;SDS011;7803;48.130;13.788;2022-11-15T08:17:17;4.78;;;4.20;;
15408;SDS011;7803;48.130;13.788;2022-11-15T08:20:19;4.88;;;4.47;;
15408;SDS011;7803;48.130;13.788;2022-11-15T08:23:21;4.88;;;4.22;;
15408;SDS011;7803;48.130;13.788;2022-11-15T08:26:23;7.03;;;4.68;;
15408;SDS011;7803;48.130;13.788;2022-11-15T08:29:30;6.80;;;4.88;;
15408;SDS011;7803;48.130;13.788;2022-11-15T08:32:32;5.32;;;4.30;;
15408;SDS011;7803;48.130;13.788;2022-11-15T08:35:34;5.68;;;4.40;;
15408;SDS011;7803;48.130;13.788;2022-11-15T08:38:36;8.55;;;4.60;;
15408;SDS011;7803;48.130;13.788;2022-11-15T08:41:38;6.47;;;5.07;;
15408;SDS011;7803;48.130;13.788;2022-11-15T08:44:42;5.47;;;4.78;;
15408;SDS011;7803;48.130;13.788;2022-11-15T08:47:44;5.18;;;4.68;;
15408;SDS011;7803;48.130;13.788;2022-11-15T08:50:46;4.82;;;4.43;;
15408;SDS011;7803;48.130;13.788;2022-11-15T08:53:48;6.22;;;4.20;;
15408;SDS011;7803;48.130;13.788;2022-11-15T08:56:50;5.05;;;4.55;;
15408;SDS011;7803;48.130;13.788;2022-11-15T08:59:53;4.68;;;4.18;;
15408;SDS011;7803;48.130;13.788;2022-11-15T09:02:55;5.20;;;4.50;;
15408;SDS011;7803;48.130;13.788;2022-11-15T09:05:58;4.88;;;4.22;;
15408;SDS011;7803;48.130;13.788;2022-11-15T09:09:01;4.70;;;4.30;;
15408;SDS011;7803;48.130;13.788;2022-11-15T09:12:03;5.50;;;4.25;;
15408;SDS011;7803;48.130;13.788;2022-11-15T09:15:08;4.85;;;4.32;;
15408;SDS011;7803;48.130;13.788;2022-11-15T09:18:11;5.10;;;4.40;;
15408;SDS011;7803;48.130;13.788;2022-11-15T09:21:13;5.22;;;4.70;;
15408;SDS011;7803;48.130;13.788;2022-11-15T09:24:15;5.13;;;4.57;;
15408;SDS011;7803;48.130;13.788;2022-11-15T09:27:18;5.05;;;4.55;;
15408;SDS011;7803;48.130;13.788;2022-11-15T09:30:21;5.25;;;4.75;;
15408;SDS011;7803;48.130;13.788;2022-11-15T09:33:23;5.72;;;4.82;;
15408;SDS011;7803;48.130;13.788;2022-11-15T09:36:25;5.50;;;5.00;;
15408;SDS011;7803;48.130;13.788;2022-11-15T09:39:27;4.78;;;4.38;;
15408;SDS011;7803;48.130;13.788;2022-11-15T09:42:36;4.65;;;4.18;;
15408;SDS011;7803;48.130;13.788;2022-11-15T09:45:52;5.15;;;4.65;;
15408;SDS011;7803;48.130;13.788;2022-11-15T09:49:03;4.82;;;4.43;;
15408;SDS011;7803;48.130;13.788;2022-11-15T09:52:06;4.85;;;4.45;;
15408;SDS011;7803;48.130;13.788;2022-11-15T09:55:10;4.55;;;4.13;;
15408;SDS011;7803;48.130;13.788;2022-11-15T09:58:16;4.65;;;4.25;;
15408;SDS011;7803;48.130;13.788;2022-11-15T10:01:32;4.72;;;4.32;;
15408;SDS011;7803;48.130;13.788;2022-11-15T10:04:40;4.60;;;4.20;;
15408;SDS011;7803;48.130;13.788;2022-11-15T10:07:45;5.18;;;4.57;;
15408;SDS011;7803;48.130;13.788;2022-11-15T10:10:52;5.18;;;4.68;;
15408;SDS011;7803;48.130;13.788;2022-11-15T10:13:59;4.75;;;4.32;;
15408;SDS011;7803;48.130;13.788;2022-11-15T10:17:13;4.90;;;4.50;;
15408;SDS011;7803;48.130;13.788;2022-11-15T10:20:39;4.85;;;4.30;;
15408;SDS011;7803;48.130;13.788;2022-11-15T10:23:47;4.93;;;4.38;;
15408;SDS011;7803;48.130;13.788;2022-11-15T10:26:49;5.18;;;4.50;;
15408;SDS011;7803;48.130;13.788;2022-11-15T10:29:51;4.40;;;4.03;;
15408;SDS011;7803;48.130;13.788;2022-11-15T10:32:55;4.40;;;4.10;;
15408;SDS011;7803;48.130;13.788;2022-11-15T10:36:16;4.95;;;4.35;;
15408;SDS011;7803;48.130;13.788;2022-11-15T10:39:19;4.85;;;4.45;;
15408;SDS011;7803;48.130;13.788;2022-11-15T10:42:25;6.03;;;4.85;;
15408;SDS011;7803;48.130;13.788;2022-11-15T10:45:28;4.85;;;4.45;;
15408;SDS011;7803;48.130;13.788;2022-11-15T10:48:33;4.53;;;4.13;;
15408;SDS011;7803;48.130;13.788;2022-11-15T10:51:38;5.10;;;4.10;;
15408;SDS011;7803;48.130;13.788;2022-11-15T10:54:45;4.95;;;4.45;;
15408;SDS011;7803;48.130;13.788;2022-11-15T10:57:50;4.80;;;4.35;;
15408;SDS011;7803;48.130;13.788;2022-11-15T11:00:54;4.75;;;4.30;;
15408;SDS011;7803;48.130;13.788;2022-11-15T11:04:01;4.50;;;4.10;;
15408;SDS011;7803;48.130;13.788;2022-11-15T11:07:08;4.60;;;4.20;;
15408;SDS011;7803;48.130;13.788;2022-11-15T11:10:22;4.57;;;4.18;;
15408;SDS011;7803;48.130;13.788;2022-11-15T11:13:26;4.40;;;3.97;;
15408;SDS011;7803;48.130;13.788;2022-11-15T11:16:34;4.28;;;3.97;;
15408;SDS011;7803;48.130;13.788;2022-11-15T11:19:49;6.90;;;4.60;;
15408;SDS011;7803;48.130;13.788;2022-11-15T11:23:03;4.45;;;4.05;;
15408;SDS011;7803;48.130;13.788;2022-11-15T11:26:26;6.03;;;5.15;;
15408;SDS011;7803;48.130;13.788;2022-11-15T11:29:41;6.05;;;5.45;;
15408;SDS011;7803;48.130;13.788;2022-11-15T11:36:18;6.00;;;5.40;;
15408;SDS011;7803;48.130;13.788;2022-11-15T11:39:28;7.18;;;5.00;;
15408;SDS011;7803;48.130;13.788;2022-11-15T11:42:40;5.50;;;5.00;;
15408;SDS011;7803;48.130;13.788;2022-11-15T11:45:53;5.30;;;4.90;;
15408;SDS011;7803;48.130;13.788;2022-11-15T11:49:12;5.20;;;4.80;;
15408;SDS011;7803;48.130;13.788;2022-11-15T11:52:23;4.90;;;4.50;;
15408;SDS011;7803;48.130;13.788;2022-11-15T11:55:31;5.57;;;4.93;;
15408;SDS011;7803;48.130;13.788;2022-11-15T11:58:37;5.20;;;4.68;;
15408;SDS011;7803;48.130;13.788;2022-11-15T12:01:43;8.50;;;7.70;;
15408;SDS011;7803;48.130;13.788;2022-11-15T12:04:47;10.10;;;9.18;;
15408;SDS011;7803;48.130;13.788;2022-11-15T12:07:54;9.65;;;8.75;;
15408;SDS011;7803;48.130;13.788;2022-11-15T12:11:04;8.65;;;7.85;;
15408;SDS011;7803;48.130;13.788;2022-11-15T12:14:17;8.25;;;7.55;;
15408;SDS011;7803;48.130;13.788;2022-11-15T12:17:28;7.40;;;6.80;;
15408;SDS011;7803;48.130;13.788;2022-11-15T12:20:33;7.55;;;6.78;;
15408;SDS011;7803;48.130;13.788;2022-11-15T12:23:43;7.38;;;6.70;;
15408;SDS011;7803;48.130;13.788;2022-11-15T12:26:51;6.90;;;6.30;;
15408;SDS011;7803;48.130;13.788;2022-11-15T12:29:56;6.40;;;5.90;;
15408;SDS011;7803;48.130;13.788;2022-11-15T12:33:02;6.97;;;5.55;;
15408;SDS011;7803;48.130;13.788;2022-11-15T12:36:05;5.80;;;5.30;;
15408;SDS011;7803;48.130;13.788;2022-11-15T12:39:12;5.88;;;5.38;;
15408;SDS011;7803;48.130;13.788;2022-11-15T12:45:41;5.72;;;5.22;;
15408;SDS011;7803;48.130;13.788;2022-11-15T12:48:54;5.50;;;5.00;;
15408;SDS011;7803;48.130;13.788;2022-11-15T12:52:07;5.95;;;5.35;;
15408;SDS011;7803;48.130;13.788;2022-11-15T12:55:30;5.35;;;4.85;;
15408;SDS011;7803;48.130;13.788;2022-11-15T12:58:40;5.07;;;4.65;;
15408;SDS011;7803;48.130;13.788;2022-11-15T13:08:53;5.43;;;4.93;;
15408;SDS011;7803;48.130;13.788;2022-11-15T13:11:57;4.80;;;4.40;;
15408;SDS011;7803;48.130;13.788;2022-11-15T13:15:07;4.90;;;4.50;;
15408;SDS011;7803;48.130;13.788;2022-11-15T13:18:54;5.35;;;4.85;;
15408;SDS011;7803;48.130;13.788;2022-11-15T13:22:04;5.18;;;4.68;;
15408;SDS011;7803;48.130;13.788;2022-11-15T13:25:47;4.97;;;4.50;;
15408;SDS011;7803;48.130;13.788;2022-11-15T13:28:56;4.93;;;4.53;;
15408;SDS011;7803;48.130;13.788;2022-11-15T13:31:59;5.65;;;4.50;;
15408;SDS011;7803;48.130;13.788;2022-11-15T13:35:03;4.97;;;4.50;;
15408;SDS011;7803;48.130;13.788;2022-11-15T13:38:12;5.35;;;4.85;;
15408;SDS011;7803;48.130;13.788;2022-11-15T13:41:21;4.65;;;4.25;;
15408;SDS011;7803;48.130;13.788;2022-11-15T13:44:25;4.90;;;4.50;;
15408;SDS011;7803;48.130;13.788;2022-11-15T13:47:29;5.00;;;4.50;;
15408;SDS011;7803;48.130;13.788;2022-11-15T13:50:33;4.63;;;4.22;;
15408;SDS011;7803;48.130;13.788;2022-11-15T13:53:40;4.18;;;3.88;;
15408;SDS011;7803;48.130;13.788;2022-11-15T13:56:48;4.60;;;4.20;;
15408;SDS011;7803;48.130;13.788;2022-11-15T13:59:56;4.70;;;4.30;;
15408;SDS011;7803;48.130;13.788;2022-11-15T14:03:06;4.47;;;4.07;;
15408;SDS011;7803;48.130;13.788;2022-11-15T14:06:16;4.80;;;4.40;;
15408;SDS011;7803;48.130;13.788;2022-11-15T14:09:25;5.25;;;4.75;;
15408;SDS011;7803;48.130;13.788;2022-11-15T14:12:33;5.63;;;4.82;;
15408;SDS011;7803;48.130;13.788;2022-11-15T14:15:37;4.95;;;4.55;;
15408;SDS011;7803;48.130;13.788;2022-11-15T14:18:41;4.47;;;4.07;;
15408;SDS011;7803;48.130;13.788;2022-11-15T14:25:15;4.40;;;4.00;;
15408;SDS011;7803;48.130;13.788;2022-11-15T14:28:28;4.63;;;4.22;;
15408;SDS011;7803;48.130;13.788;2022-11-15T14:31:33;4.75;;;4.32;;
15408;SDS011;7803;48.130;13.788;2022-11-15T14:34:35;4.80;;;4.40;;
15408;SDS011;7803;48.130;13.788;2022-11-15T14:37:38;4.75;;;4.35;;
15408;SDS011;7803;48.130;13.788;2022-11-15T14:40:40;4.47;;;4.07;;
15408;SDS011;7803;48.130;13.788;2022-11-15T14:43:43;4.53;;;4.13;;
15408;SDS011;7803;48.130;13.788;2022-11-15T14:46:45;4.72;;;4.32;;
15408;SDS011;7803;48.130;13.788;2022-11-15T14:49:48;4.75;;;4.35;;
15408;SDS011;7803;48.130;13.788;2022-11-15T14:52:51;4.78;;;4.22;;
15408;SDS011;7803;48.130;13.788;2022-11-15T14:55:53;4.55;;;4.15;;
15408;SDS011;7803;48.130;13.788;2022-11-15T14:58:55;4.78;;;4.38;;
15408;SDS011;7803;48.130;13.788;2022-11-15T15:01:58;4.43;;;4.05;;
15408;SDS011;7803;48.130;13.788;2022-11-15T15:05:00;4.20;;;3.80;;
15408;SDS011;7803;48.130;13.788;2022-11-15T15:08:05;4.43;;;4.00;;
15408;SDS011;7803;48.130;13.788;2022-11-15T15:11:08;4.40;;;4.00;;
15408;SDS011;7803;48.130;13.788;2022-11-15T15:14:14;4.72;;;4.32;;
15408;SDS011;7803;48.130;13.788;2022-11-15T15:17:16;5.18;;;4.50;;
15408;SDS011;7803;48.130;13.788;2022-11-15T15:20:18;5.90;;;4.38;;
15408;SDS011;7803;48.130;13.788;2022-11-15T15:23:22;4.47;;;4.07;;
15408;SDS011;7803;48.130;13.788;2022-11-15T15:26:25;4.95;;;4.50;;
15408;SDS011;7803;48.130;13.788;2022-11-15T15:29:27;4.90;;;4.50;;
15408;SDS011;7803;48.130;13.788;2022-11-15T15:32:29;4.40;;;4.00;;
15408;SDS011;7803;48.130;13.788;2022-11-15T15:35:32;4.35;;;4.03;;
15408;SDS011;7803;48.130;13.788;2022-11-15T15:38:36;4.50;;;4.10;;
15408;SDS011;7803;48.130;13.788;2022-11-15T15:41:39;4.40;;;3.97;;
15408;SDS011;7803;48.130;13.788;2022-11-15T15:44:41;4.53;;;4.13;;
15408;SDS011;7803;48.130;13.788;2022-11-15T15:47:43;4.38;;;3.97;;
15408;SDS011;7803;48.130;13.788;2022-11-15T15:50:46;5.60;;;4.32;;
15408;SDS011;7803;48.130;13.788;2022-11-15T15:53:50;4.40;;;4.00;;
15408;SDS011;7803;48.130;13.788;2022-11-15T15:56:57;4.35;;;3.95;;
15408;SDS011;7803;48.130;13.788;2022-11-15T15:59:59;6.22;;;4.32;;
15408;SDS011;7803;48.130;13.788;2022-11-15T16:03:01;4.53;;;4.13;;
15408;SDS011;7803;48.130;13.788;2022-11-15T16:06:03;5.15;;;4.10;;
15408;SDS011;7803;48.130;13.788;2022-11-15T16:09:08;5.13;;;4.13;;
15408;SDS011;7803;48.130;13.788;2022-11-15T16:12:12;5.07;;;4.45;;
15408;SDS011;7803;48.130;13.788;2022-11-15T16:15:14;4.85;;;4.10;;
15408;SDS011;7803;48.130;13.788;2022-11-15T16:18:17;4.60;;;4.00;;
15408;SDS011;7803;48.130;13.788;2022-11-15T16:21:19;4.47;;;4.03;;
15408;SDS011;7803;48.130;13.788;2022-11-15T16:24:23;5.82;;;4.00;;
15408;SDS011;7803;48.130;13.788;2022-11-15T16:27:25;4.65;;;3.83;;
15408;SDS011;7803;48.130;13.788;2022-11-15T16:30:27;4.47;;;4.07;;
15408;SDS011;7803;48.130;13.788;2022-11-15T16:33:30;5.65;;;4.63;;
15408;SDS011;7803;48.130;13.788;2022-11-15T16:36:32;7.93;;;4.22;;
15408;SDS011;7803;48.130;13.788;2022-11-15T16:39:37;4.20;;;3.80;;
15408;SDS011;7803;48.130;13.788;2022-11-15T16:42:39;4.95;;;3.85;;
15408;SDS011;7803;48.130;13.788;2022-11-15T16:45:41;5.40;;;3.88;;
15408;SDS011;7803;48.130;13.788;2022-11-15T16:48:43;4.50;;;4.10;;
15408;SDS011;7803;48.130;13.788;2022-11-15T16:51:45;5.20;;;4.20;;
15408;SDS011;7803;48.130;13.788;2022-11-15T16:54:49;4.20;;;3.78;;
15408;SDS011;7803;48.130;13.788;2022-11-15T16:57:51;5.22;;;4.35;;
15408;SDS011;7803;48.130;13.788;2022-11-15T17:00:54;7.57;;;5.13;;
15408;SDS011;7803;48.130;13.788;2022-11-15T17:03:57;5.32;;;4.00;;
15408;SDS011;7803;48.130;13.788;2022-11-15T17:07:11;4.47;;;4.07;;
15408;SDS011;7803;48.130;13.788;2022-11-15T17:10:15;4.78;;;4.13;;
15408;SDS011;7803;48.130;13.788;2022-11-15T17:13:17;5.07;;;4.32;;
15408;SDS011;7803;48.130;13.788;2022-11-15T17:16:20;4.78;;;3.92;;
15408;SDS011;7803;48.130;13.788;2022-11-15T17:19:22;4.80;;;3.90;;
15408;SDS011;7803;48.130;13.788;2022-11-15T17:22:25;4.05;;;3.72;;
15408;SDS011;7803;48.130;13.788;2022-11-15T17:25:29;6.07;;;4.00;;
15408;SDS011;7803;48.130;13.788;2022-11-15T17:28:32;4.63;;;4.03;;
15408;SDS011;7803;48.130;13.788;2022-11-15T17:31:35;4.68;;;3.97;;
15408;SDS011;7803;48.130;13.788;2022-11-15T17:34:38;4.40;;;4.00;;
15408;SDS011;7803;48.130;13.788;2022-11-15T17:37:41;4.45;;;3.83;;
15408;SDS011;7803;48.130;13.788;2022-11-15T17:40:48;6.57;;;3.80;;
15408;SDS011;7803;48.130;13.788;2022-11-15T17:44:01;3.95;;;3.65;;
15408;SDS011;7803;48.130;13.788;2022-11-15T17:47:04;4.20;;;3.80;;
15408;SDS011;7803;48.130;13.788;2022-11-15T17:50:06;4.68;;;4.15;;
15408;SDS011;7803;48.130;13.788;2022-11-15T17:53:10;4.72;;;3.85;;
15408;SDS011;7803;48.130;13.788;2022-11-15T17:56:15;5.35;;;4.20;;
15408;SDS011;7803;48.130;13.788;2022-11-15T17:59:18;4.35;;;3.92;;
15408;SDS011;7803;48.130;13.788;2022-11-15T18:02:20;4.95;;;4.00;;
15408;SDS011;7803;48.130;13.788;2022-11-15T18:05:23;4.28;;;3.88;;
15408;SDS011;7803;48.130;13.788;2022-11-15T18:08:25;4.20;;;3.67;;
15408;SDS011;7803;48.130;13.788;2022-11-15T18:11:29;4.80;;;3.67;;
15408;SDS011;7803;48.130;13.788;2022-11-15T18:14:34;4.40;;;4.00;;
15408;SDS011;7803;48.130;13.788;2022-11-15T18:17:38;4.10;;;3.70;;
15408;SDS011;7803;48.130;13.788;2022-11-15T18:20:40;4.65;;;3.85;;
15408;SDS011;7803;48.130;13.788;2022-11-15T18:23:43;3.83;;;3.50;;
15408;SDS011;7803;48.130;13.788;2022-11-15T18:26:46;4.43;;;3.85;;
15408;SDS011;7803;48.130;13.788;2022-11-15T18:29:50;4.95;;;3.72;;
15408;SDS011;7803;48.130;13.788;2022-11-15T18:32:53;3.88;;;3.58;;
15408;SDS011;7803;48.130;13.788;2022-11-15T18:36:06;4.13;;;3.83;;
15408;SDS011;7803;48.130;13.788;2022-11-15T18:39:10;3.92;;;3.63;;
15408;SDS011;7803;48.130;13.788;2022-11-15T18:42:16;3.80;;;3.50;;
15408;SDS011;7803;48.130;13.788;2022-11-15T18:45:19;3.97;;;3.63;;
15408;SDS011;7803;48.130;13.788;2022-11-15T18:48:23;4.07;;;3.67;;
15408;SDS011;7803;48.130;13.788;2022-11-15T18:51:25;4.57;;;3.65;;
15408;SDS011;7803;48.130;13.788;2022-11-15T18:54:32;4.93;;;4.25;;
15408;SDS011;7803;48.130;13.788;2022-11-15T18:57:37;4.00;;;3.60;;
15408;SDS011;7803;48.130;13.788;2022-11-15T19:00:40;3.58;;;3.28;;
15408;SDS011;7803;48.130;13.788;2022-11-15T19:03:43;3.30;;;3.00;;